Time;durP1;ratioP1;P1;durP2;ratioP2;P2;SDS_P1;SDS_P2;PMS_P1;PMS_P2;Temp;Humidity;BMP_temperature;BMP_pressure;BME280_temperature;BME280_humidity;BME280_pressure;Samples;Min_cycle;Max_cycle;Signal;HPM_P1;HPM_P2
2023/10/14 00:00:46;;;;;;;0.70;0.47;;;22.10;91.60;;;;;;5021857;28;20450;-78
2023/10/14 00:03:27;;;;;;;0.43;0.33;;;22.10;91.80;;;;;;5040271;28;20443;-79
2023/10/14 00:05:54;;;;;;;0.60;0.50;;;22.00;91.90;;;;;;5042419;28;20485;-76
2023/10/14 00:08:20;;;;;;;1.13;1.03;;;22.00;92.10;;;;;;5042015;28;20511;-76
2023/10/14 00:10:46;;;;;;;2.20;0.77;;;22.00;92.20;;;;;;5048300;28;20442;-78
2023/10/14 00:13:16;;;;;;;0.50;0.30;;;22.00;92.20;;;;;;5043321;28;20438;-82
2023/10/14 00:15:42;;;;;;;0.70;0.47;;;23.00;92.80;;;;;;5041386;28;21928;-81
2023/10/14 00:18:08;;;;;;;0.77;0.77;;;22.00;92.30;;;;;;5044157;28;20585;-81
2023/10/14 00:20:36;;;;;;;0.90;0.57;;;22.00;92.50;;;;;;5039636;28;20514;-80
2023/10/14 00:23:04;;;;;;;0.83;0.60;;;22.00;92.60;;;;;;5038323;28;20192;-80
2023/10/14 00:25:32;;;;;;;0.80;0.50;;;21.90;92.70;;;;;;5038626;28;20572;-80
2023/10/14 00:27:58;;;;;;;3.23;1.33;;;22.00;93.10;;;;;;5036736;28;20471;-81
2023/10/14 00:30:27;;;;;;;1.80;1.70;;;21.90;93.30;;;;;;5020619;28;21155;-81
2023/10/14 00:32:53;;;;;;;0.63;0.63;;;22.00;93.50;;;;;;5041900;28;20463;-77
2023/10/14 00:35:19;;;;;;;0.50;0.40;;;21.90;93.70;;;;;;5040025;28;20927;-78
2023/10/14 00:37:45;;;;;;;0.60;0.60;;;21.90;94.00;;;;;;5023761;28;20254;-77
2023/10/14 00:40:12;;;;;;;1.43;1.13;;;21.90;94.20;;;;;;5036292;28;20447;-82
2023/10/14 00:42:41;;;;;;;0.50;0.50;;;21.80;94.30;;;;;;5015432;28;20311;-79
2023/10/14 00:45:09;;;;;;;0.43;0.37;;;21.80;94.70;;;;;;5032217;28;20459;-81
2023/10/14 00:47:41;;;;;;;1.47;1.37;;;21.70;94.90;;;;;;5030495;28;20481;-80
2023/10/14 00:50:27;;;;;;;2.53;1.80;;;21.70;95.00;;;;;;5014853;28;20444;-83
2023/10/14 00:53:00;;;;;;;1.17;0.90;;;21.80;95.20;;;;;;5018818;28;20455;-83
2023/10/14 00:55:41;;;;;;;2.53;1.33;;;21.80;95.10;;;;;;5037354;28;20475;-79
2023/10/14 00:58:07;;;;;;;2.77;2.57;;;21.80;95.30;;;;;;5045315;28;20845;-78
2023/10/14 01:00:45;;;;;;;0.80;0.63;;;21.80;95.20;;;;;;5029070;28;20516;-78
2023/10/14 01:03:15;;;;;;;1.33;1.23;;;21.90;95.40;;;;;;5028232;28;20232;-80
2023/10/14 01:05:40;;;;;;;0.60;0.60;;;21.80;95.50;;;;;;5028782;28;21044;-79
2023/10/14 01:08:11;;;;;;;0.97;0.87;;;21.80;95.70;;;;;;5044144;28;20463;-84
2023/10/14 01:10:38;;;;;;;0.50;0.43;;;21.80;95.80;;;;;;5030070;28;20777;-76
2023/10/14 01:13:13;;;;;;;0.50;0.40;;;21.70;96.00;;;;;;5024044;28;20510;-82
2023/10/14 01:15:45;;;;;;;1.17;0.87;;;21.70;96.20;;;;;;5048932;28;20482;-76
2023/10/14 01:18:14;;;;;;;0.60;0.30;;;21.70;96.40;;;;;;5035761;28;21512;-78
2023/10/14 01:20:40;;;;;;;1.37;1.27;;;21.60;96.50;;;;;;5032841;28;20446;-77
2023/10/14 01:23:14;;;;;;;1.17;1.07;;;21.60;96.70;;;;;;5032284;28;20435;-79
2023/10/14 01:25:51;;;;;;;1.47;0.70;;;21.50;97.10;;;;;;5015222;28;20467;-77
2023/10/14 01:28:30;;;;;;;1.53;1.43;;;21.50;97.40;;;;;;5031298;28;20914;-79
2023/10/14 01:32:05;;;;;;;0.40;0.23;;;21.50;98.00;;;;;;5034181;28;20505;-82
2023/10/14 01:34:24;;;;;;;0.47;0.37;;;21.30;98.70;;;;;;5030184;28;20443;-81
2023/10/14 01:36:50;;;;;;;0.50;0.40;;;21.30;99.10;;;;;;5035172;28;21067;-82
2023/10/14 01:39:25;;;;;;;0.47;0.37;;;21.20;99.80;;;;;;5042295;28;20535;-77
2023/10/14 01:41:53;;;;;;;0.40;0.40;;;21.20;99.90;;;;;;5028331;28;20446;-80
2023/10/14 01:44:21;;;;;;;3.17;1.00;;;21.10;99.90;;;;;;5018318;28;20671;-81
2023/10/14 01:46:47;;;;;;;0.50;0.50;;;21.10;99.90;;;;;;5037528;28;20535;-83
2023/10/14 01:49:19;;;;;;;0.60;0.53;;;22.20;99.90;;;;;;5021726;28;20466;-81
2023/10/14 01:51:49;;;;;;;0.50;0.43;;;21.10;99.90;;;;;;5040860;28;20462;-80
2023/10/14 01:54:16;;;;;;;0.90;0.90;;;21.00;99.90;;;;;;5040253;28;20443;-81
2023/10/14 01:56:42;;;;;;;0.47;0.30;;;21.00;99.90;;;;;;5039531;28;20443;-80
2023/10/14 01:59:09;;;;;;;0.40;0.40;;;20.90;99.90;;;;;;5038036;28;20447;-75
2023/10/14 02:01:41;;;;;;;0.83;0.83;;;20.90;99.90;;;;;;5040797;28;20439;-82
2023/10/14 02:04:07;;;;;;;0.50;0.43;;;20.90;99.90;;;;;;5022141;28;20443;-83
2023/10/14 02:06:32;;;;;;;0.60;0.50;;;20.90;99.90;;;;;;5022726;28;20843;-79
2023/10/14 02:09:00;;;;;;;1.10;0.80;;;20.90;99.90;;;;;;5012276;28;20941;-78
2023/10/14 02:11:33;;;;;;;1.00;0.87;;;20.80;99.90;;;;;;5044927;28;20173;-77
2023/10/14 02:13:59;;;;;;;0.50;0.40;;;20.80;99.90;;;;;;5023903;28;21054;-84
2023/10/14 02:16:25;;;;;;;1.83;0.90;;;20.80;99.90;;;;;;5024397;28;20582;-82
2023/10/14 02:18:51;;;;;;;0.90;0.67;;;20.70;99.90;;;;;;5024209;28;20515;-81
2023/10/14 02:21:18;;;;;;;0.60;0.30;;;20.70;99.90;;;;;;5025795;28;20219;-80
2023/10/14 02:23:45;;;;;;;1.17;0.40;;;;;;;;;;5040105;28;21034;-78
2023/10/14 02:26:25;;;;;;;2.27;0.87;;;20.60;99.90;;;;;;5038532;28;20455;-77
2023/10/14 02:28:52;;;;;;;1.80;1.67;;;20.60;99.90;;;;;;5014242;28;21116;-80
2023/10/14 02:31:28;;;;;;;0.83;0.83;;;20.50;99.90;;;;;;5038394;28;20825;-83
2023/10/14 02:33:55;;;;;;;1.70;0.80;;;20.60;99.90;;;;;;5046888;28;20806;-84
2023/10/14 02:36:21;;;;;;;0.50;0.30;;;20.60;99.90;;;;;;5022497;28;20455;-79
2023/10/14 02:38:55;;;;;;;0.40;0.30;;;20.60;99.90;;;;;;5036429;28;20439;-80
2023/10/14 02:41:26;;;;;;;0.73;0.73;;;20.60;99.90;;;;;;5018761;28;20180;-81
2023/10/14 02:44:01;;;;;;;2.30;1.10;;;20.70;99.90;;;;;;5038560;28;20552;-81
2023/10/14 02:46:30;;;;;;;0.80;0.60;;;20.70;99.90;;;;;;5016658;28;20440;-76
2023/10/14 02:49:02;;;;;;;0.83;0.57;;;20.60;99.90;;;;;;5034011;28;20468;-78
2023/10/14 02:51:42;;;;;;;0.60;0.43;;;20.90;99.90;;;;;;5035406;28;20443;-81
2023/10/14 02:54:26;;;;;;;1.83;1.73;;;20.70;99.90;;;;;;5037151;28;20589;-80
2023/10/14 02:59:22;;;;;;;1.10;0.87;;;20.70;99.90;;;;;;5042187;28;20482;-81
2023/10/14 03:02:09;;;;;;;0.60;0.50;;;20.60;99.90;;;;;;5023865;28;20445;-81
2023/10/14 03:04:42;;;;;;;1.43;0.50;;;20.60;99.90;;;;;;5026409;28;20481;-81
2023/10/14 03:07:08;;;;;;;0.87;0.53;;;20.60;99.90;;;;;;5045060;28;20458;-80
2023/10/14 03:09:34;;;;;;;0.70;0.70;;;20.60;99.90;;;;;;5028377;28;20473;-80
2023/10/14 03:12:00;;;;;;;0.93;0.93;;;20.50;99.90;;;;;;5044334;28;20439;-79
2023/10/14 03:14:27;;;;;;;0.53;0.53;;;20.50;99.90;;;;;;5043458;28;20240;-80
2023/10/14 03:16:53;;;;;;;0.80;0.80;;;20.50;99.90;;;;;;5039138;28;20449;-79
2023/10/14 03:19:19;;;;;;;7.47;3.57;;;20.50;99.90;;;;;;5023077;28;23726;-76
2023/10/14 03:22:00;;;;;;;0.60;0.53;;;20.50;99.90;;;;;;5038770;28;20193;-79
2023/10/14 03:24:29;;;;;;;0.50;0.40;;;20.40;99.90;;;;;;5018748;28;20205;-74
2023/10/14 03:27:00;;;;;;;1.67;1.57;;;20.30;99.90;;;;;;5044173;28;21482;-77
2023/10/14 03:29:28;;;;;;;1.83;1.73;;;20.30;99.90;;;;;;5019519;28;20528;-79
2023/10/14 03:31:55;;;;;;;0.80;0.70;;;20.30;99.90;;;;;;5037567;28;20439;-81
2023/10/14 03:34:25;;;;;;;0.40;0.30;;;20.20;99.90;;;;;;5036092;28;21948;-81
2023/10/14 03:37:00;;;;;;;1.10;1.00;;;20.20;99.90;;;;;;5037148;28;20435;-81
2023/10/14 03:39:45;;;;;;;1.27;1.17;;;20.30;99.90;;;;;;5038024;28;20726;-80
2023/10/14 03:42:11;;;;;;;1.57;0.60;;;;;;;;;;5027061;28;20450;-81
2023/10/14 03:44:41;;;;;;;1.10;0.60;;;20.30;99.90;;;;;;5039827;28;20455;-78
2023/10/14 03:47:14;;;;;;;1.00;0.83;;;20.30;99.90;;;;;;5016914;28;20444;-78
2023/10/14 03:49:41;;;;;;;0.40;0.30;;;20.40;99.90;;;;;;5034798;28;20448;-80
2023/10/14 03:52:10;;;;;;;1.33;0.77;;;20.40;99.90;;;;;;5013422;28;20513;-80
2023/10/14 03:54:41;;;;;;;0.50;0.37;;;20.50;99.90;;;;;;5015703;28;20721;-80
2023/10/14 03:57:07;;;;;;;2.33;0.90;;;20.00;99.90;;;;;;5014531;28;20431;-78
2023/10/14 03:59:33;;;;;;;1.00;0.67;;;18.30;99.90;;;;;;5031196;28;20447;-78
2023/10/14 04:02:05;;;;;;;0.40;0.30;;;17.30;99.90;;;;;;5016368;28;21050;-81
2023/10/14 04:04:31;;;;;;;4.67;0.50;;;17.00;99.90;;;;;;5034686;28;20557;-82
2023/10/14 04:14:54;;;;;;;0.40;0.30;;;16.30;99.90;;;;;;5037454;28;20458;-77
2023/10/14 04:17:21;;;;;;;0.40;0.30;;;16.50;99.90;;;;;;5034064;28;20439;-81
2023/10/14 04:19:53;;;;;;;1.60;0.63;;;16.50;99.90;;;;;;5011954;28;20177;-79
2023/10/14 04:24:53;;;;;;;0.40;0.30;;;16.60;99.90;;;;;;5043066;28;20463;-81
2023/10/14 04:30:21;;;;;;;0.40;0.30;;;16.60;99.90;;;;;;5042496;28;20438;-78
2023/10/14 04:32:46;;;;;;;0.50;0.47;;;16.60;99.90;;;;;;5037316;28;20435;-82
2023/10/14 04:35:13;;;;;;;0.40;0.30;;;16.60;99.90;;;;;;5025452;28;20486;-79
2023/10/14 04:37:51;;;;;;;1.23;0.60;;;16.60;99.90;;;;;;5013401;28;20447;-81
2023/10/14 04:43:37;;;;;;;0.60;0.40;;;16.50;99.90;;;;;;5038612;28;20439;-81
2023/10/14 04:46:16;;;;;;;0.40;0.30;;;16.40;99.90;;;;;;5021298;28;20459;-78
2023/10/14 04:48:50;;;;;;;0.40;0.20;;;16.50;99.90;;;;;;5020959;28;20573;-79
2023/10/14 04:51:16;;;;;;;2.00;0.80;;;16.40;99.90;;;;;;5018844;28;21180;-80
2023/10/14 04:53:49;;;;;;;0.60;0.50;;;16.40;99.90;;;;;;5034084;28;20479;-79
2023/10/14 04:56:29;;;;;;;0.50;0.40;;;16.30;99.90;;;;;;5017192;28;20327;-77
2023/10/14 04:58:59;;;;;;;5.60;0.60;;;16.30;99.90;;;;;;5045474;28;20474;-80
2023/10/14 05:01:25;;;;;;;0.50;0.50;;;16.40;99.90;;;;;;5044609;28;20451;-79
2023/10/14 05:03:56;;;;;;;0.40;0.30;;;16.50;99.90;;;;;;5047292;28;20450;-77
2023/10/14 05:06:22;;;;;;;0.50;0.50;;;16.70;99.90;;;;;;5044963;28;20216;-79
2023/10/14 05:08:51;;;;;;;0.40;0.30;;;16.80;99.90;;;;;;5020241;28;20497;-81
2023/10/14 05:11:18;;;;;;;0.40;0.30;;;16.80;99.90;;;;;;5044075;28;20461;-80
2023/10/14 05:16:29;;;;;;;0.70;0.70;;;16.80;99.90;;;;;;5044281;28;20825;-79
2023/10/14 05:21:47;;;;;;;0.40;0.30;;;16.90;99.90;;;;;;5022622;28;20213;-80
2023/10/14 05:24:13;;;;;;;0.40;0.20;;;16.80;99.90;;;;;;5035262;28;20637;-81
2023/10/14 05:26:46;;;;;;;0.40;0.30;;;16.80;99.90;;;;;;5021370;28;20435;-78
2023/10/14 05:29:19;;;;;;;0.50;0.30;;;16.80;99.90;;;;;;5036957;28;20201;-80
2023/10/14 05:31:46;;;;;;;0.40;0.30;;;16.80;99.90;;;;;;5033464;28;20443;-79
2023/10/14 05:34:13;;;;;;;0.40;0.27;;;16.90;99.90;;;;;;5031323;28;20821;-82
2023/10/14 05:36:40;;;;;;;0.40;0.30;;;16.90;99.90;;;;;;5036059;28;20482;-79
2023/10/14 05:39:12;;;;;;;1.20;0.33;;;16.90;99.90;;;;;;5034168;28;20439;-80
2023/10/14 05:41:38;;;;;;;1.13;1.03;;;17.30;99.90;;;;;;5018617;28;20681;-81
2023/10/14 05:44:04;;;;;;;0.50;0.50;;;16.80;99.90;;;;;;5033217;28;20458;-79
2023/10/14 05:46:30;;;;;;;0.40;0.20;;;16.80;99.90;;;;;;5032271;28;20468;-84
2023/10/14 05:48:56;;;;;;;0.40;0.20;;;16.90;99.90;;;;;;5029166;28;20467;-80
2023/10/14 05:51:22;;;;;;;0.40;0.20;;;16.80;99.90;;;;;;5030769;28;20447;-81
2023/10/14 05:53:48;;;;;;;0.40;0.20;;;16.90;99.90;;;;;;5037773;28;20446;-79
2023/10/14 05:56:14;;;;;;;0.70;0.70;;;16.90;99.90;;;;;;5024190;28;20455;-81
2023/10/14 05:58:52;;;;;;;0.57;0.50;;;16.90;99.90;;;;;;5032243;28;20447;-81
2023/10/14 06:01:18;;;;;;;0.40;0.20;;;17.00;99.90;;;;;;5033380;28;20189;-81
2023/10/14 06:03:47;;;;;;;0.40;0.20;;;17.00;99.90;;;;;;5017963;28;20506;-81
2023/10/14 06:06:16;;;;;;;0.67;0.67;;;17.00;99.90;;;;;;5014297;28;20567;-79
2023/10/14 06:08:46;;;;;;;1.60;1.50;;;16.90;99.90;;;;;;5045270;28;20468;-80
2023/10/14 06:11:13;;;;;;;0.40;0.30;;;16.90;99.90;;;;;;5017699;28;20443;-82
2023/10/14 06:13:39;;;;;;;0.40;0.30;;;16.90;99.90;;;;;;5032501;28;21724;-80
2023/10/14 06:16:12;;;;;;;0.40;0.30;;;16.90;99.90;;;;;;5032485;28;20462;-82
2023/10/14 06:18:39;;;;;;;0.40;0.30;;;16.90;99.90;;;;;;5037245;28;20469;-84
2023/10/14 06:21:08;;;;;;;0.40;0.20;;;16.90;99.90;;;;;;5014277;28;20455;-82
2023/10/14 06:23:34;;;;;;;0.40;0.20;;;17.00;99.90;;;;;;5038249;28;20935;-78
2023/10/14 06:25:59;;;;;;;0.40;0.20;;;17.00;99.90;;;;;;5037660;28;21134;-80
2023/10/14 06:28:27;;;;;;;0.40;0.30;;;17.00;99.90;;;;;;5040658;28;20463;-79
2023/10/14 06:30:54;;;;;;;0.80;0.60;;;17.10;99.90;;;;;;5035800;28;20206;-78
2023/10/14 06:33:26;;;;;;;0.40;0.20;;;17.10;99.90;;;;;;5033349;28;20787;-82
2023/10/14 06:35:52;;;;;;;0.40;0.30;;;;;;;;;;5042807;28;20228;-77
2023/10/14 06:38:19;;;;;;;0.50;0.40;;;17.10;99.90;;;;;;5042956;28;21374;-81
2023/10/14 06:40:52;;;;;;;0.50;0.40;;;17.10;99.90;;;;;;5045896;28;20463;-81
2023/10/14 06:43:19;;;;;;;0.40;0.30;;;17.20;99.90;;;;;;5040747;28;20883;-81
2023/10/14 06:45:46;;;;;;;0.50;0.50;;;17.20;99.90;;;;;;5019691;28;20475;-83
2023/10/14 06:48:12;;;;;;;0.40;0.20;;;17.20;99.90;;;;;;5018235;28;20468;-81
2023/10/14 06:50:41;;;;;;;0.50;0.30;;;17.30;99.90;;;;;;5036622;28;20443;-78
2023/10/14 06:53:10;;;;;;;0.40;0.20;;;17.40;99.90;;;;;;5021278;28;20540;-80
2023/10/14 06:55:40;;;;;;;0.40;0.20;;;17.40;99.90;;;;;;5036899;28;20459;-81
2023/10/14 06:58:08;;;;;;;0.40;0.20;;;17.40;99.90;;;;;;5040950;28;20470;-78
2023/10/14 07:00:37;;;;;;;0.40;0.20;;;17.40;99.90;;;;;;5038530;28;20446;-76
2023/10/14 07:03:06;;;;;;;0.40;0.20;;;17.50;99.90;;;;;;5040826;28;20439;-80
2023/10/14 07:05:32;;;;;;;0.40;0.20;;;17.50;99.90;;;;;;5044698;28;20717;-80
2023/10/14 07:07:58;;;;;;;0.40;0.27;;;17.50;99.90;;;;;;5039780;28;21500;-83
2023/10/14 07:10:27;;;;;;;0.40;0.30;;;17.60;99.90;;;;;;5026000;28;20261;-77
2023/10/14 07:12:57;;;;;;;0.40;0.30;;;17.60;99.90;;;;;;5040737;28;20442;-81
2023/10/14 07:15:23;;;;;;;0.50;0.40;;;17.60;99.90;;;;;;5027574;28;20558;-79
2023/10/14 07:17:49;;;;;;;0.40;0.30;;;;;;;;;;5032951;28;20566;-83
2023/10/14 07:20:15;;;;;;;0.40;0.27;;;18.10;99.90;;;;;;5036042;28;20515;-79
2023/10/14 07:22:42;;;;;;;0.40;0.30;;;;;;;;;;5036045;28;20465;-80
2023/10/14 07:25:09;;;;;;;0.40;0.20;;;18.10;99.90;;;;;;5034257;28;20211;-81
2023/10/14 07:27:35;;;;;;;0.40;0.30;;;18.20;99.90;;;;;;5035357;28;20459;-81
2023/10/14 07:30:14;;;;;;;0.50;0.30;;;18.10;99.90;;;;;;5034015;28;20458;-78
2023/10/14 07:32:44;;;;;;;0.70;0.50;;;18.10;99.90;;;;;;5017900;28;20450;-84
2023/10/14 07:35:12;;;;;;;0.40;0.30;;;18.10;99.90;;;;;;5023760;28;20459;-79
2023/10/14 07:37:44;;;;;;;0.40;0.20;;;18.10;99.90;;;;;;5023766;28;20442;-79
2023/10/14 07:40:23;;;;;;;0.40;0.30;;;18.20;99.90;;;;;;5022235;28;20443;-82
2023/10/14 07:42:54;;;;;;;0.40;0.30;;;18.90;99.90;;;;;;5018839;28;20443;-78
2023/10/14 07:45:21;;;;;;;0.40;0.20;;;19.40;99.90;;;;;;5037412;28;23755;-77
2023/10/14 07:47:48;;;;;;;0.40;0.20;;;19.60;99.90;;;;;;5038021;28;20475;-79
2023/10/14 07:50:15;;;;;;;0.73;0.40;;;20.30;99.90;;;;;;5022392;28;20439;-83
2023/10/14 07:52:41;;;;;;;0.40;0.20;;;;;;;;;;5037771;28;20439;-77
2023/10/14 07:55:15;;;;;;;0.40;0.30;;;20.70;99.90;;;;;;5041416;28;20443;-80
2023/10/14 07:57:46;;;;;;;0.40;0.30;;;20.60;99.90;;;;;;5041062;28;20457;-78
2023/10/14 08:00:26;;;;;;;0.50;0.33;;;19.50;99.90;;;;;;5047823;28;20999;-78
2023/10/14 08:03:05;;;;;;;0.40;0.20;;;;;;;;;;5047769;28;20454;-84
2023/10/14 08:05:33;;;;;;;0.40;0.30;;;18.70;99.90;;;;;;5045273;28;20498;-80
2023/10/14 08:08:05;;;;;;;0.40;0.20;;;17.80;99.90;;;;;;5041041;28;20485;-83
2023/10/14 08:10:34;;;;;;;0.40;0.20;;;17.30;99.90;;;;;;5039398;28;20438;-83
2023/10/14 08:13:04;;;;;;;0.40;0.20;;;16.60;99.90;;;;;;5042896;28;20447;-79
2023/10/14 08:15:40;;;;;;;0.40;0.20;;;16.30;99.90;;;;;;5019551;28;20557;-81
2023/10/14 08:18:06;;;;;;;0.40;0.30;;;16.30;99.90;;;;;;5042472;28;20474;-80
2023/10/14 08:20:33;;;;;;;0.40;0.20;;;16.10;99.90;;;;;;5040936;28;20587;-82
2023/10/14 08:22:59;;;;;;;0.40;0.20;;;;;;;;;;5049869;28;20447;-80
2023/10/14 08:25:25;;;;;;;0.40;0.20;;;16.00;99.90;;;;;;5013168;28;21072;-82
2023/10/14 08:27:55;;;;;;;0.40;0.20;;;15.90;99.90;;;;;;5043165;28;20996;-80
2023/10/14 08:30:24;;;;;;;0.50;0.40;;;16.00;99.90;;;;;;5042175;28;20465;-79
2023/10/14 08:32:53;;;;;;;0.40;0.30;;;15.80;99.90;;;;;;5041381;28;20462;-82
2023/10/14 08:35:19;;;;;;;0.40;0.30;;;15.70;99.90;;;;;;5035676;28;20458;-78
2023/10/14 08:37:49;;;;;;;0.40;0.20;;;15.60;99.90;;;;;;5049352;28;20423;-84
2023/10/14 08:40:17;;;;;;;1.57;1.23;;;15.60;99.90;;;;;;5038734;28;20467;-83
2023/10/14 08:42:55;;;;;;;0.40;0.30;;;15.60;99.90;;;;;;5042852;28;20541;-80
2023/10/14 08:45:22;;;;;;;0.40;0.20;;;15.60;99.90;;;;;;5042901;28;20462;-81
2023/10/14 08:47:52;;;;;;;0.40;0.20;;;15.40;99.90;;;;;;5037535;28;20469;-81
2023/10/14 08:50:21;;;;;;;0.40;0.30;;;15.40;99.90;;;;;;5022245;28;20470;-83
2023/10/14 08:52:49;;;;;;;0.40;0.20;;;15.20;99.90;;;;;;5041476;28;20483;-83
2023/10/14 08:55:16;;;;;;;0.40;0.20;;;15.10;99.90;;;;;;5020218;28;20546;-77
2023/10/14 08:57:45;;;;;;;0.40;0.23;;;15.00;99.90;;;;;;5042770;28;20446;-81
2023/10/14 09:00:20;;;;;;;0.40;0.20;;;14.90;99.90;;;;;;5043301;28;21491;-83
2023/10/14 09:02:51;;;;;;;0.40;0.20;;;15.10;99.90;;;;;;5022149;28;20435;-80
2023/10/14 09:05:17;;;;;;;0.40;0.20;;;15.20;99.90;;;;;;5038811;28;20494;-78
2023/10/14 09:07:45;;;;;;;0.40;0.20;;;15.20;99.90;;;;;;5053985;28;21156;-82
2023/10/14 09:10:10;;;;;;;0.40;0.23;;;15.30;99.90;;;;;;5052591;28;20462;-79
2023/10/14 09:12:36;;;;;;;0.40;0.20;;;15.30;99.90;;;;;;5034825;28;20452;-83
2023/10/14 09:15:03;;;;;;;0.40;0.30;;;15.40;99.90;;;;;;5039223;28;20455;-80
2023/10/14 09:17:29;;;;;;;0.40;0.20;;;15.40;99.90;;;;;;5037076;28;20177;-81
2023/10/14 09:19:55;;;;;;;0.40;0.20;;;15.60;99.90;;;;;;5037202;28;20447;-86
2023/10/14 09:22:24;;;;;;;0.40;0.20;;;15.50;99.90;;;;;;5030140;28;20443;-76
2023/10/14 09:24:58;;;;;;;0.40;0.20;;;15.60;99.90;;;;;;5031128;28;20813;-77
2023/10/14 09:27:26;;;;;;;0.40;0.20;;;15.70;99.90;;;;;;5034650;28;20436;-80
2023/10/14 09:29:52;;;;;;;0.40;0.30;;;15.80;99.90;;;;;;5040315;28;20446;-79
2023/10/14 09:32:18;;;;;;;0.40;0.20;;;15.70;99.90;;;;;;5038500;28;20493;-81
2023/10/14 09:34:44;;;;;;;0.43;0.37;;;15.80;99.90;;;;;;5018439;28;20554;-82
2023/10/14 09:37:13;;;;;;;0.40;0.20;;;15.90;99.90;;;;;;5036297;28;20880;-80
2023/10/14 09:39:44;;;;;;;0.40;0.20;;;16.20;99.90;;;;;;5048084;28;20262;-78
2023/10/14 09:42:10;;;;;;;0.40;0.20;;;16.20;99.90;;;;;;5040049;28;20451;-83
2023/10/14 09:44:44;;;;;;;0.40;0.20;;;16.30;99.90;;;;;;5022818;28;20801;-82
2023/10/14 09:47:13;;;;;;;0.40;0.20;;;16.30;99.90;;;;;;5021212;28;20440;-75
2023/10/14 09:49:39;;;;;;;0.40;0.20;;;16.30;99.90;;;;;;5039135;28;20514;-79
2023/10/14 09:52:06;;;;;;;0.80;0.50;;;16.10;99.90;;;;;;5035279;28;20442;-77
2023/10/14 09:54:47;;;;;;;0.40;0.27;;;16.10;99.90;;;;;;5044154;28;20431;-82
2023/10/14 09:57:16;;;;;;;0.60;0.50;;;16.00;99.90;;;;;;5047583;28;20529;-77
2023/10/14 09:59:42;;;;;;;0.40;0.30;;;15.00;99.90;;;;;;5041248;28;20820;-83
2023/10/14 10:02:09;;;;;;;0.40;0.30;;;16.20;99.90;;;;;;5045220;28;20476;-82
2023/10/14 10:04:40;;;;;;;0.40;0.27;;;16.30;99.90;;;;;;5036951;28;20522;-79
2023/10/14 10:07:24;;;;;;;0.40;0.30;;;16.40;99.90;;;;;;5030716;28;20469;-83
2023/10/14 10:10:13;;;;;;;0.40;0.30;;;16.50;99.90;;;;;;5015614;28;20450;-83
2023/10/14 10:12:41;;;;;;;0.60;0.60;;;16.40;99.90;;;;;;5023645;28;20529;-84
2023/10/14 10:15:08;;;;;;;0.40;0.20;;;16.60;99.90;;;;;;5022347;28;23953;-83
2023/10/14 10:17:38;;;;;;;0.60;0.50;;;16.50;99.90;;;;;;5020078;28;20427;-83
2023/10/14 10:20:25;;;;;;;0.40;0.20;;;16.50;99.90;;;;;;5032453;28;20435;-83
2023/10/14 10:22:55;;;;;;;0.40;0.20;;;16.50;99.90;;;;;;5037867;28;20446;-85
2023/10/14 10:25:37;;;;;;;0.40;0.30;;;16.80;99.90;;;;;;5040594;28;20461;-80
2023/10/14 10:28:25;;;;;;;0.40;0.20;;;16.70;99.90;;;;;;5021960;28;20463;-83
2023/10/14 10:30:55;;;;;;;0.40;0.20;;;16.50;99.90;;;;;;5037815;28;20440;-82
2023/10/14 10:33:22;;;;;;;0.40;0.20;;;16.30;99.90;;;;;;5032816;28;20803;-84
2023/10/14 10:35:56;;;;;;;0.40;0.30;;;16.30;99.90;;;;;;5025262;28;20443;-82
2023/10/14 10:38:23;;;;;;;0.40;0.30;;;16.10;99.90;;;;;;5040479;28;20434;-82
2023/10/14 10:41:24;;;;;;;0.70;0.57;;;16.00;99.90;;;;;;5037462;28;20435;-82
2023/10/14 10:43:52;;;;;;;0.40;0.20;;;16.00;99.90;;;;;;5039439;28;20446;-85
2023/10/14 10:46:38;;;;;;;0.40;0.30;;;15.50;99.90;;;;;;5020662;28;20470;-83
2023/10/14 10:49:07;;;;;;;0.60;0.60;;;15.30;99.90;;;;;;5038305;28;21197;-83
2023/10/14 10:51:34;;;;;;;0.40;0.20;;;15.20;99.90;;;;;;5021160;28;20470;-80
2023/10/14 10:54:00;;;;;;;0.40;0.30;;;15.20;99.90;;;;;;5039125;28;20428;-82
2023/10/14 10:56:28;;;;;;;0.40;0.20;;;15.20;99.90;;;;;;5037194;28;20459;-81
2023/10/14 10:58:56;;;;;;;0.40;0.20;;;15.10;99.90;;;;;;5039905;28;21008;-81
2023/10/14 11:01:21;;;;;;;0.40;0.30;;;15.00;99.90;;;;;;5022903;28;20526;-83
2023/10/14 11:03:49;;;;;;;0.40;0.20;;;15.00;99.90;;;;;;5028756;28;20518;-81
2023/10/14 11:06:17;;;;;;;0.40;0.30;;;14.90;99.90;;;;;;5042639;28;20250;-79
2023/10/14 11:08:46;;;;;;;0.40;0.20;;;14.80;99.90;;;;;;5042531;28;20524;-83
2023/10/14 11:11:12;;;;;;;0.40;0.20;;;14.80;99.90;;;;;;5043367;28;20432;-81
2023/10/14 11:13:39;;;;;;;0.40;0.20;;;14.70;99.90;;;;;;5038739;28;20427;-84
2023/10/14 11:16:14;;;;;;;0.50;0.40;;;14.60;99.90;;;;;;5023154;28;20490;-83
2023/10/14 11:18:47;;;;;;;0.50;0.30;;;14.50;99.90;;;;;;5041589;28;20443;-84
2023/10/14 11:21:14;;;;;;;0.40;0.30;;;14.50;99.90;;;;;;5020945;28;20454;-83
2023/10/14 11:23:41;;;;;;;0.40;0.20;;;14.30;99.90;;;;;;5021435;28;20458;-82
2023/10/14 11:26:15;;;;;;;0.50;0.40;;;14.30;99.90;;;;;;5038696;28;20215;-82
2023/10/14 11:28:45;;;;;;;0.40;0.20;;;14.10;99.90;;;;;;5021635;28;20247;-83
2023/10/14 11:31:11;;;;;;;0.40;0.20;;;14.10;99.90;;;;;;5045956;28;20485;-83
2023/10/14 11:33:36;;;;;;;0.40;0.20;;;14.10;99.90;;;;;;5028705;28;20185;-82
2023/10/14 11:36:05;;;;;;;0.40;0.20;;;14.00;99.90;;;;;;5047337;28;20287;-83
2023/10/14 11:38:32;;;;;;;0.40;0.20;;;14.00;99.90;;;;;;5050101;28;20208;-80
2023/10/14 11:40:58;;;;;;;0.40;0.30;;;14.10;99.90;;;;;;5050885;28;20489;-83
2023/10/14 11:43:24;;;;;;;0.40;0.30;;;14.10;99.90;;;;;;5030624;28;20455;-83
2023/10/14 11:45:54;;;;;;;0.40;0.20;;;14.00;99.90;;;;;;5034408;28;20462;-80
2023/10/14 11:48:25;;;;;;;0.40;0.30;;;14.10;99.90;;;;;;5049069;28;20212;-83
2023/10/14 11:50:58;;;;;;;0.40;0.20;;;14.10;99.90;;;;;;5048113;28;20446;-80
2023/10/14 11:53:27;;;;;;;0.93;0.40;;;14.10;99.90;;;;;;5031125;28;20802;-84
2023/10/14 11:55:54;;;;;;;0.40;0.30;;;14.00;99.90;;;;;;5036495;28;20596;-84
2023/10/14 11:58:20;;;;;;;0.40;0.20;;;14.00;99.90;;;;;;5050006;28;20499;-82
2023/10/14 12:00:45;;;;;;;0.40;0.30;;;14.20;99.90;;;;;;5034385;28;20514;-81
2023/10/14 12:03:13;;;;;;;0.40;0.20;;;14.60;99.90;;;;;;5048949;28;20192;-82
2023/10/14 12:05:39;;;;;;;0.40;0.20;;;14.80;99.90;;;;;;5048234;28;20197;-82
2023/10/14 12:08:08;;;;;;;0.40;0.30;;;14.70;99.90;;;;;;5034383;28;20466;-81
2023/10/14 12:10:34;;;;;;;0.40;0.20;;;14.60;99.90;;;;;;5032700;28;20435;-81
2023/10/14 12:12:59;;;;;;;0.40;0.30;;;14.50;99.90;;;;;;5050806;28;20450;-82
2023/10/14 12:15:25;;;;;;;0.40;0.20;;;14.50;99.90;;;;;;5047810;28;21236;-83
2023/10/14 12:17:52;;;;;;;0.40;0.20;;;14.40;99.90;;;;;;5045110;28;20301;-79
2023/10/14 12:20:19;;;;;;;0.40;0.20;;;14.20;99.90;;;;;;5048347;28;20431;-82
2023/10/14 12:22:47;;;;;;;0.40;0.20;;;14.20;99.90;;;;;;5049553;28;21156;-83
2023/10/14 12:25:13;;;;;;;0.40;0.20;;;14.10;99.90;;;;;;5050452;28;20550;-82
2023/10/14 12:27:39;;;;;;;0.40;0.30;;;14.00;99.90;;;;;;5044863;28;20532;-83
2023/10/14 12:30:08;;;;;;;0.53;0.53;;;14.00;99.90;;;;;;5030846;28;20485;-81
2023/10/14 12:32:33;;;;;;;0.40;0.20;;;13.90;99.90;;;;;;5030364;28;20308;-84
2023/10/14 12:35:07;;;;;;;0.40;0.30;;;13.90;99.90;;;;;;5044547;28;20553;-81
2023/10/14 12:37:33;;;;;;;0.40;0.30;;;14.00;99.90;;;;;;5034170;28;20199;-82
2023/10/14 12:40:11;;;;;;;0.40;0.20;;;14.10;99.90;;;;;;5051762;28;20439;-80
2023/10/14 12:42:45;;;;;;;0.60;0.30;;;14.20;99.90;;;;;;5047131;28;20495;-81
2023/10/14 12:45:22;;;;;;;0.50;0.50;;;14.30;99.90;;;;;;5042332;28;20458;-82
2023/10/14 12:47:48;;;;;;;0.40;0.20;;;14.60;99.90;;;;;;5031333;28;20442;-81
2023/10/14 12:50:15;;;;;;;0.40;0.30;;;14.60;99.90;;;;;;5043128;28;20446;-81
2023/10/14 12:52:49;;;;;;;0.97;0.70;;;14.50;99.90;;;;;;5045820;28;20193;-82
2023/10/14 12:55:22;;;;;;;0.40;0.20;;;14.50;99.90;;;;;;5026123;28;20545;-82
2023/10/14 12:57:48;;;;;;;1.53;0.77;;;14.60;99.90;;;;;;5042733;28;20446;-81
2023/10/14 13:00:29;;;;;;;0.40;0.20;;;14.60;99.90;;;;;;5054781;28;20479;-81
2023/10/14 13:02:56;;;;;;;0.40;0.20;;;14.40;99.90;;;;;;5047375;28;20428;-84
2023/10/14 13:05:23;;;;;;;0.50;0.40;;;14.30;99.90;;;;;;5029881;28;20465;-80
2023/10/14 13:07:52;;;;;;;0.40;0.30;;;14.30;99.90;;;;;;5027249;28;20434;-81
2023/10/14 13:10:18;;;;;;;0.70;0.60;;;14.40;99.90;;;;;;5047143;28;20436;-79
2023/10/14 13:12:55;;;;;;;0.40;0.30;;;14.50;99.90;;;;;;5053212;28;20454;-84
2023/10/14 13:15:28;;;;;;;0.40;0.20;;;14.50;99.90;;;;;;5033601;28;20459;-80
2023/10/14 13:18:00;;;;;;;1.27;1.17;;;14.50;99.90;;;;;;5034831;28;20435;-82
2023/10/14 13:20:30;;;;;;;0.40;0.20;;;14.50;99.90;;;;;;5023294;28;20450;-84
2023/10/14 13:22:58;;;;;;;0.40;0.20;;;14.20;99.90;;;;;;5045179;28;20443;-83
2023/10/14 13:25:24;;;;;;;0.87;0.50;;;14.20;99.90;;;;;;5027443;28;20209;-83
2023/10/14 13:27:51;;;;;;;0.77;0.73;;;14.10;99.90;;;;;;5042460;28;20470;-80